F/V Barracuda II — FMIF — position and weather

sailwx.info

Track history (hours):
 
Tides and Currents Weather Stations Pressure Air Temp Water Temp Dewpoint Dewpoint Depression Visibility Wind Speed Wind Dir Waves Ship Positions

F/V Barracuda II

Last reported at 2017-Jul-21 14:21 UTC. Time now 2017-Jul-23 16:43 UTC.
Position N 43°31' E 004°06'.

Length 18 m.

Type: Fishing. MMSI: 228236800.

Date/timePositionNaut miles runAvg speedWind from/ knotsBaromVisibWave heightAir tempDewpointWater temp
2017-Jul-21 14:21N 43°31' E 004°06'411.0
2017-Jul-21 14:00N 43°27' E 004°08'5 7.9
2017-Jul-21 13:25N 43°23' E 004°10'1 1.4
2017-Jul-21 13:00N 43°23' E 004°10'9 3.7
2017-Jul-21 10:29N 43°24' E 003°57'10 0.5
2017-Jul-20 13:59N 43°31' E 004°07'510.6
2017-Jul-20 13:30N 43°26' E 004°09'6 4.3
2017-Jul-20 12:06N 43°23' E 004°16'0 3.9
2017-Jul-20 12:01N 43°23' E 004°16'2 3.9
2017-Jul-20 11:31N 43°22' E 004°19'2 3.9
2017-Jul-20 11:00N 43°21' E 004°21'2 3.9
2017-Jul-20 10:30N 43°20' E 004°23'1 1.3
2017-Jul-20 10:00N 43°20' E 004°24'1 2.3
2017-Jul-20 09:26N 43°20' E 004°26'1 3.4
2017-Jul-20 09:01N 43°22' E 004°26'1 2.3
2017-Jul-20 08:22N 43°23' E 004°26'1 3.9
2017-Jul-20 08:00N 43°23' E 004°28'2 3.7
2017-Jul-20 07:30N 43°22' E 004°30'2 3.9
2017-Jul-20 07:01N 43°20' E 004°31'2 3.8
2017-Jul-20 06:30N 43°19' E 004°33'1 2.2
2017-Jul-20 06:00N 43°18' E 004°34'2 3.9
2017-Jul-20 05:30N 43°18' E 004°31'2 3.9
2017-Jul-20 04:59N 43°20' E 004°29'2 3.8
2017-Jul-20 04:24N 43°21' E 004°26'2 3.9
2017-Jul-20 03:58N 43°21' E 004°24'2 3.9
2017-Jul-20 03:30N 43°22' E 004°22'2 3.9
2017-Jul-20 02:59N 43°22' E 004°19'13 1.0
2017-Jul-19 14:04N 43°32' E 004°07'0 3.5
2017-Jul-19 14:00N 43°32' E 004°07'4 8.6
2017-Jul-19 13:31N 43°27' E 004°08'7 4.7
2017-Jul-19 12:07N 43°23' E 004°16'1 3.9
2017-Jul-19 11:59N 43°23' E 004°16'6 3.9
2017-Jul-19 10:24N 43°21' E 004°24'0 0.3
2017-Jul-19 10:01N 43°22' E 004°24'1 2.6
2017-Jul-19 09:30N 43°21' E 004°22'2 3.5
2017-Jul-19 08:51N 43°20' E 004°25'1 3.9
2017-Jul-19 08:30N 43°20' E 004°27'2 3.9
2017-Jul-19 08:00N 43°19' E 004°29'2 3.9
2017-Jul-19 07:30N 43°19' E 004°32'2 3.9
2017-Jul-19 07:00N 43°18' E 004°34'1 1.8
2017-Jul-19 06:30N 43°17' E 004°35'1 2.3
2017-Jul-19 06:00N 43°18' E 004°33'2 3.9
2017-Jul-19 05:30N 43°18' E 004°31'2 3.9
2017-Jul-19 05:00N 43°19' E 004°29'2 3.9
2017-Jul-19 04:22N 43°21' E 004°26'2 3.9
2017-Jul-19 03:51N 43°22' E 004°23'1 3.9
2017-Jul-19 03:31N 43°22' E 004°22'2 3.9
2017-Jul-19 03:00N 43°22' E 004°19'3 3.9
2017-Jul-19 02:14N 43°24' E 004°15'7 8.1
2017-Jul-19 01:23N 43°28' E 004°08'3 8.6
2017-Jul-19 00:59N 43°31' E 004°07'0 0.0
2017-Jul-18 14:00N 43°32' E 004°07'5 9.8
2017-Jul-18 13:30N 43°27' E 004°07'3 5.5
2017-Jul-18 13:00N 43°24' E 004°08'4 3.7
2017-Jul-18 11:49N 43°23' E 004°14'6 2.2
2017-Jul-18 09:05N 43°21' E 004°22'1 3.9
2017-Jul-18 08:48N 43°21' E 004°23'7 3.8
2017-Jul-18 07:05N 43°19' E 004°32'0 3.9
2017-Jul-18 07:00N 43°19' E 004°32'2 1.2
2017-Jul-18 05:05N 43°19' E 004°29'8 3.8
2017-Jul-18 03:05N 43°22' E 004°19'1 3.9
2017-Jul-18 02:50N 43°23' E 004°18'5 0.4
2017-Jul-17 13:08N 43°20' E 004°12'1 3.8
2017-Jul-17 12:52N 43°19' E 004°13'7 3.8
2017-Jul-17 11:08N 43°17' E 004°21'1 3.9
2017-Jul-17 10:56N 43°17' E 004°22'7 4.0
2017-Jul-17 09:07N 43°24' E 004°25'5 2.6
2017-Jul-17 07:09N 43°21' E 004°31'1 3.8
2017-Jul-17 06:53N 43°20' E 004°32'2 1.1
2017-Jul-17 05:09N 43°18' E 004°30'1 4.2
2017-Jul-17 04:53N 43°19' E 004°28'7 4.0
2017-Jul-17 03:09N 43°21' E 004°20'  
2017-Jul-13 13:31N 43°31' E 004°06'0 3.4
2017-Jul-13 13:30N 43°31' E 004°06'5 9.8
2017-Jul-13 13:00N 43°27' E 004°09'4 4.3
2017-Jul-13 12:04N 43°24' E 004°14'0 3.9
2017-Jul-13 12:00N 43°24' E 004°14'2 3.9
2017-Jul-13 11:30N 43°23' E 004°16'2 3.9
2017-Jul-13 11:00N 43°22' E 004°18'2 3.9
2017-Jul-13 10:30N 43°21' E 004°21'2 4.1
2017-Jul-13 10:00N 43°20' E 004°23'2 3.8
2017-Jul-13 09:29N 43°19' E 004°26'6 2.6
2017-Jul-13 07:10N 43°25' E 004°29'6 3.1
2017-Jul-13 05:10N 43°18' E 004°28'14 0.9
2017-Jul-12 13:46N 43°26' E 004°13'610.2
2017-Jul-12 13:13N 43°22' E 004°19'3 7.0
2017-Jul-12 12:46N 43°20' E 004°22'4 3.5
2017-Jul-12 11:46N 43°18' E 004°26'2 3.9
2017-Jul-12 11:13N 43°17' E 004°28'2 3.9
2017-Jul-12 10:47N 43°16' E 004°30'2 3.9
2017-Jul-12 10:20N 43°15' E 004°32'2 4.3
2017-Jul-12 09:49N 43°13' E 004°33'1 3.3
2017-Jul-12 09:25N 43°12' E 004°34'2 3.8
2017-Jul-12 09:00N 43°11' E 004°36'3 3.8
2017-Jul-12 08:20N 43°11' E 004°40'4 3.3
2017-Jul-12 07:10N 43°15' E 004°40'1 3.9
2017-Jul-12 07:00N 43°16' E 004°39'  
Track history (hours):
 
Tides and Currents Weather Stations Pressure Air Temp Water Temp Dewpoint Dewpoint Depression Visibility Wind Speed Wind Dir Waves Ship Positions

F/V Barracuda II

Last reported at 2017-Jul-21 14:21 UTC. Time now 2017-Jul-23 16:43 UTC.
Position N 43°31' E 004°06'.

Length 18 m.

Type: Fishing. MMSI: 228236800.

Date/timePositionNaut miles runAvg speedWind from/ knotsBaromVisibWave heightAir tempDewpointWater temp
2017-Jul-21 14:21N 43°31' E 004°06'411.0
2017-Jul-21 14:00N 43°27' E 004°08'5 7.9
2017-Jul-21 13:25N 43°23' E 004°10'1 1.4
2017-Jul-21 13:00N 43°23' E 004°10'9 3.7
2017-Jul-21 10:29N 43°24' E 003°57'10 0.5
2017-Jul-20 13:59N 43°31' E 004°07'510.6
2017-Jul-20 13:30N 43°26' E 004°09'6 4.3
2017-Jul-20 12:06N 43°23' E 004°16'0 3.9
2017-Jul-20 12:01N 43°23' E 004°16'2 3.9
2017-Jul-20 11:31N 43°22' E 004°19'2 3.9
2017-Jul-20 11:00N 43°21' E 004°21'2 3.9
2017-Jul-20 10:30N 43°20' E 004°23'1 1.3
2017-Jul-20 10:00N 43°20' E 004°24'1 2.3
2017-Jul-20 09:26N 43°20' E 004°26'1 3.4
2017-Jul-20 09:01N 43°22' E 004°26'1 2.3
2017-Jul-20 08:22N 43°23' E 004°26'1 3.9
2017-Jul-20 08:00N 43°23' E 004°28'2 3.7
2017-Jul-20 07:30N 43°22' E 004°30'2 3.9
2017-Jul-20 07:01N 43°20' E 004°31'2 3.8
2017-Jul-20 06:30N 43°19' E 004°33'1 2.2
2017-Jul-20 06:00N 43°18' E 004°34'2 3.9
2017-Jul-20 05:30N 43°18' E 004°31'2 3.9
2017-Jul-20 04:59N 43°20' E 004°29'2 3.8
2017-Jul-20 04:24N 43°21' E 004°26'2 3.9
2017-Jul-20 03:58N 43°21' E 004°24'2 3.9
2017-Jul-20 03:30N 43°22' E 004°22'2 3.9
2017-Jul-20 02:59N 43°22' E 004°19'13 1.0
2017-Jul-19 14:04N 43°32' E 004°07'0 3.5
2017-Jul-19 14:00N 43°32' E 004°07'4 8.6
2017-Jul-19 13:31N 43°27' E 004°08'7 4.7
2017-Jul-19 12:07N 43°23' E 004°16'1 3.9
2017-Jul-19 11:59N 43°23' E 004°16'6 3.9
2017-Jul-19 10:24N 43°21' E 004°24'0 0.3
2017-Jul-19 10:01N 43°22' E 004°24'1 2.6
2017-Jul-19 09:30N 43°21' E 004°22'2 3.5
2017-Jul-19 08:51N 43°20' E 004°25'1 3.9
2017-Jul-19 08:30N 43°20' E 004°27'2 3.9
2017-Jul-19 08:00N 43°19' E 004°29'2 3.9
2017-Jul-19 07:30N 43°19' E 004°32'2 3.9
2017-Jul-19 07:00N 43°18' E 004°34'1 1.8
2017-Jul-19 06:30N 43°17' E 004°35'1 2.3
2017-Jul-19 06:00N 43°18' E 004°33'2 3.9
2017-Jul-19 05:30N 43°18' E 004°31'2 3.9
2017-Jul-19 05:00N 43°19' E 004°29'2 3.9
2017-Jul-19 04:22N 43°21' E 004°26'2 3.9
2017-Jul-19 03:51N 43°22' E 004°23'1 3.9
2017-Jul-19 03:31N 43°22' E 004°22'2 3.9
2017-Jul-19 03:00N 43°22' E 004°19'3 3.9
2017-Jul-19 02:14N 43°24' E 004°15'7 8.1
2017-Jul-19 01:23N 43°28' E 004°08'3 8.6
2017-Jul-19 00:59N 43°31' E 004°07'0 0.0
2017-Jul-18 14:00N 43°32' E 004°07'5 9.8
2017-Jul-18 13:30N 43°27' E 004°07'3 5.5
2017-Jul-18 13:00N 43°24' E 004°08'4 3.7
2017-Jul-18 11:49N 43°23' E 004°14'6 2.2
2017-Jul-18 09:05N 43°21' E 004°22'1 3.9
2017-Jul-18 08:48N 43°21' E 004°23'7 3.8
2017-Jul-18 07:05N 43°19' E 004°32'0 3.9
2017-Jul-18 07:00N 43°19' E 004°32'2 1.2
2017-Jul-18 05:05N 43°19' E 004°29'8 3.8
2017-Jul-18 03:05N 43°22' E 004°19'1 3.9
2017-Jul-18 02:50N 43°23' E 004°18'5 0.4
2017-Jul-17 13:08N 43°20' E 004°12'1 3.8
2017-Jul-17 12:52N 43°19' E 004°13'7 3.8
2017-Jul-17 11:08N 43°17' E 004°21'1 3.9
2017-Jul-17 10:56N 43°17' E 004°22'7 4.0
2017-Jul-17 09:07N 43°24' E 004°25'5 2.6
2017-Jul-17 07:09N 43°21' E 004°31'1 3.8
2017-Jul-17 06:53N 43°20' E 004°32'2 1.1
2017-Jul-17 05:09N 43°18' E 004°30'1 4.2
2017-Jul-17 04:53N 43°19' E 004°28'7 4.0
2017-Jul-17 03:09N 43°21' E 004°20'  
2017-Jul-13 13:31N 43°31' E 004°06'0 3.4
2017-Jul-13 13:30N 43°31' E 004°06'5 9.8
2017-Jul-13 13:00N 43°27' E 004°09'4 4.3
2017-Jul-13 12:04N 43°24' E 004°14'0 3.9
2017-Jul-13 12:00N 43°24' E 004°14'2 3.9
2017-Jul-13 11:30N 43°23' E 004°16'2 3.9
2017-Jul-13 11:00N 43°22' E 004°18'2 3.9
2017-Jul-13 10:30N 43°21' E 004°21'2 4.1
2017-Jul-13 10:00N 43°20' E 004°23'2 3.8
2017-Jul-13 09:29N 43°19' E 004°26'6 2.6
2017-Jul-13 07:10N 43°25' E 004°29'6 3.1
2017-Jul-13 05:10N 43°18' E 004°28'14 0.9
2017-Jul-12 13:46N 43°26' E 004°13'610.2
2017-Jul-12 13:13N 43°22' E 004°19'3 7.0
2017-Jul-12 12:46N 43°20' E 004°22'4 3.5
2017-Jul-12 11:46N 43°18' E 004°26'2 3.9
2017-Jul-12 11:13N 43°17' E 004°28'2 3.9
2017-Jul-12 10:47N 43°16' E 004°30'2 3.9
2017-Jul-12 10:20N 43°15' E 004°32'2 4.3
2017-Jul-12 09:49N 43°13' E 004°33'1 3.3
2017-Jul-12 09:25N 43°12' E 004°34'2 3.8
2017-Jul-12 09:00N 43°11' E 004°36'3 3.8
2017-Jul-12 08:20N 43°11' E 004°40'4 3.3
2017-Jul-12 07:10N 43°15' E 004°40'1 3.9
2017-Jul-12 07:00N 43°16' E 004°39'  

Dump ship's entire track history